Annette Island Airport Annette US
ICAO: PANT
IATA:
Category: Medium
Scheduled Services:

Elevation: 119 ft
TransAlt. 18000 ft.

Airport Communications:
ASOS:135.75
CTAF:122.9
KETCHIKAN RDO:122.4

PANT Zoom In..

If Map Doesn't Load, Click Here

Runways:

(A) RW 02 length 5709 ft width 150 ft
---- / hdg 20

(B) RW 12 length 7493 ft width 150 ft
---- / hdg 124

(C) RW 20 length 5709 ft width 150 ft
---- / hdg 200

(D) RW 30 length 7493 ft width 150 ft
---- / hdg 304

Location; PANT
Day. 23 / Time. 07.53 Zulu
* Altimeter: 29.99
* Temperature: 12° c. 53.6°f.
* Wind from: 000° Speed 00 kn.
Dewpoint: 09° c.
Visibility: 10 Statute Miles.
Clouds: Few 7500 ft.
Clouds: Overcast 11000 ft.

PANT 230753Z AUTO 00000KT 10SM FEW075 OVC110 12/09 A2999 RMK SLP157 T01170089 TSNO VIA AUTODIAL


Wind - Calm.

 
 
jpsmedia.com for Web Design worldairports.se 2018   terms of use